Latest Weather Observations for Hervey Bay

IDQ60801

Issued at 9:02 am EST Wednesday 20 February 2019 (issued every 10 minutes, with the page automatically refreshed every 10 minutes)

About weather observations | Map of weather stations | Latest weather observations for QLD | Other Formats
Station Details ID: 040405 Name: HERVEY BAY AIRPORT Lat: -25.32 Lon: 152.88 Height: 12.98 m
Data from the previous 72 hours. | See also: Recent months at Hervey Bay
Date/Time
EST
Temp
°C
App
Temp
°C
Dew
Point
°C
Rel
Hum
%
Delta-T
°C
Wind Press
QNH
hPa
Press
MSL
hPa
Rain since
9am
mm
Dir  Spd
km/h
Gust
km/h
Spd
kts
Gust
kts
20/09:00am 28.3 30.1 21.1 65 4.8 SSW 13 26 7 14 1007.8 1007.7 0.0
20/08:30am 27.1 28.7 21.4 71 3.8 SSW 15 24 8 13 1007.9 1007.8 0.0
20/08:00am 25.5 27.5 21.6 79 2.6 SSW 13 17 7 9 1007.9 1007.8 0.0
20/07:30am 24.1 25.6 21.2 84 1.9 SSW 15 19 8 10 1007.9 1007.8 0.0
20/07:00am 22.8 24.6 21.1 90 1.1 SW 13 15 7 8 1007.6 1007.5 0.0
20/06:56am 22.6 24.8 21.1 91 1.0 SW 11 15 6 8 1007.6 1007.5 0.0
20/06:30am 22.0 24.1 21.0 94 0.7 SSW 11 15 6 8 1007.3 1007.2 0.0
20/06:00am 21.5 23.4 20.5 94 0.6 SSW 11 15 6 8 1006.8 1006.7 0.0
20/05:31am 21.6 23.1 20.6 94 0.6 SSW 13 17 7 9 1006.1 1006.0 0.0
20/05:30am 21.6 23.1 20.6 94 0.6 SSW 13 17 7 9 1006.1 1006.0 0.0
20/05:00am 21.7 23.3 20.7 94 0.7 SSW 13 17 7 9 1005.4 1005.3 0.0
20/04:30am 21.5 23.3 20.3 93 0.8 SSW 11 15 6 8 1005.4 1005.3 0.0
20/04:00am 21.4 23.4 20.0 92 0.9 SSW 9 11 5 6 1005.2 1005.1 0.0
20/03:30am 21.3 23.6 19.8 91 1.0 SW 7 9 4 5 1005.3 1005.2 0.0
20/03:00am 21.5 23.8 19.8 90 1.1 SSW 7 9 4 5 1005.4 1005.3 0.0
20/02:30am 21.6 25.1 19.5 88 1.3 CALM 0 0 0 0 1005.5 1005.4 0.0
20/02:00am 22.1 25.2 20.2 89 1.2 SW 4 7 2 4 1005.7 1005.6 0.0
20/01:30am 22.1 24.6 20.2 89 1.2 SW 7 9 4 5 1006.0 1005.9 0.0
20/01:00am 22.5 25.3 20.4 88 1.4 SW 6 7 3 4 1006.2 1006.1 0.0
20/12:30am 22.6 24.8 20.5 88 1.4 SSW 9 13 5 7 1006.5 1006.4 0.0
20/12:00am 22.5 26.2 20.0 86 1.6 CALM 0 0 0 0 1007.1 1007.0 0.0
 
Date/Time
EST
Temp
°C
App
Temp
°C
Dew
Point
°C
Rel
Hum
%
Delta-T
°C
Wind Press
QNH
hPa
Press
MSL
hPa
Rain since
9am
mm
Dir  Spd
km/h
Gust
km/h
Spd
kts
Gust
kts
19/11:30pm 22.7 25.3 20.4 87 1.5 SW 7 9 4 5 1007.2 1007.1 0.0
19/11:00pm 22.8 26.3 20.3 86 1.6 SW 2 7 1 4 1007.7 1007.6 0.0
19/10:30pm 22.4 24.7 19.9 86 1.6 SW 7 9 4 5 1007.8 1007.7 0.0
19/10:00pm 22.7 25.0 19.9 84 1.8 SSW 7 7 4 4 1007.7 1007.6 0.0
19/09:30pm 23.5 25.9 20.0 81 2.3 SSW 7 9 4 5 1007.7 1007.6 0.0
19/09:00pm 24.8 28.0 20.5 77 2.8 S 4 9 2 5 1007.6 1007.5 0.0
19/08:30pm 25.2 27.9 20.7 76 2.9 SSE 7 11 4 6 1007.4 1007.3 0.0
19/08:00pm 25.5 27.1 20.7 75 3.2 ESE 13 17 7 9 1007.0 1006.9 0.0
19/07:30pm 25.7 27.1 20.3 72 3.5 SE 13 20 7 11 1006.4 1006.3 0.0
19/07:00pm 26.0 26.6 20.3 71 3.7 SE 17 22 9 12 1006.3 1006.2 0.0
19/06:30pm 26.4 26.7 20.3 69 4.0 SE 19 24 10 13 1006.1 1006.0 0.0
19/06:00pm 27.2 27.7 20.0 64 4.7 ESE 17 26 9 14 1005.8 1005.7 0.0
19/05:30pm 28.1 28.0 19.9 61 5.4 ESE 20 32 11 17 1005.4 1005.3 0.0
19/05:00pm 28.8 27.3 19.4 56 6.1 ESE 26 33 14 18 1005.0 1004.9 0.0
19/04:30pm 29.4 28.1 19.1 54 6.7 ESE 24 32 13 17 1004.8 1004.7 0.0
19/04:00pm 30.1 29.0 19.5 53 6.9 ESE 24 33 13 18 1004.7 1004.6 0.0
19/03:30pm 30.2 28.6 19.3 52 7.1 ESE 26 35 14 19 1004.6 1004.5 0.0
19/03:00pm 31.2 29.6 19.2 48 7.9 ESE 26 35 14 19 1004.7 1004.6 0.0
19/02:30pm 31.9 30.4 19.5 47 8.1 ESE 26 35 14 19 1004.8 1004.7 0.0
19/02:00pm 31.9 31.3 18.8 45 8.5 SE 20 32 11 17 1005.1 1005.0 0.0
19/01:30pm 31.6 31.0 18.9 47 8.3 ESE 20 32 11 17 1005.5 1005.4 0.0
19/01:00pm 31.2 30.4 18.5 46 8.2 SE 20 33 11 18 1005.9 1005.8 0.0
19/12:30pm 31.4 30.7 19.4 49 7.9 SE 22 32 12 17 1006.4 1006.3 0.0
19/12:00pm 30.6 30.2 19.0 50 7.6 SE 19 30 10 16 1007.1 1007.0 0.0
19/11:30am 30.5 29.8 18.2 47 7.9 SE 19 32 10 17 1007.4 1007.3 0.0
19/11:00am 30.8 31.1 19.5 51 7.4 SE 17 28 9 15 1007.9 1007.8 0.0
19/10:30am 30.1 30.8 18.8 50 7.3 SE 13 24 7 13 1008.2 1008.1 0.0
19/10:00am 29.5 30.3 19.8 56 6.4 SE 15 24 8 13 1008.5 1008.4 0.0
19/09:30am 29.4 30.5 20.5 58 5.9 SSE 15 24 8 13 1008.5 1008.4 0.0
19/09:00am 28.5 29.1 20.2 60 5.5 SSE 17 26 9 14 1008.6 1008.5 0.0
19/08:30am 27.8 29.0 20.6 65 4.7 S 15 26 8 14 1008.5 1008.4 0.0
19/08:00am 26.4 27.9 20.5 70 3.9 SSW 13 17 7 9 1008.6 1008.5 0.0
19/07:30am 24.6 25.8 19.9 75 3.0 SSW 13 19 7 10 1008.6 1008.5 0.0
19/07:00am 22.4 23.1 18.8 80 2.3 SSW 13 17 7 9 1008.6 1008.5 0.0
19/06:30am 20.7 21.6 18.5 87 1.4 SSW 11 15 6 8 1008.4 1008.3 0.0
19/06:00am 19.6 20.2 17.6 88 1.2 SSW 11 15 6 8 1008.0 1007.9 0.0
19/05:30am 19.6 20.2 17.6 88 1.2 SSW 11 15 6 8 1007.9 1007.8 0.0
19/05:00am 19.8 20.0 17.6 87 1.4 SSW 13 19 7 10 1007.6 1007.5 0.0
19/04:30am 20.0 20.2 17.6 86 1.5 SSW 13 20 7 11 1007.5 1007.4 0.0
19/04:00am 20.2 20.4 17.6 85 1.6 SSW 13 19 7 10 1007.6 1007.5 0.0
19/03:30am 20.5 20.6 17.5 83 1.8 SSW 13 17 7 9 1007.5 1007.4 0.0
19/03:00am 20.6 20.7 17.4 82 2.0 SSW 13 17 7 9 1007.6 1007.5 0.0
19/02:30am 20.7 20.5 17.5 82 2.0 SSW 15 20 8 11 1007.9 1007.8 0.0
19/02:00am 20.5 20.5 17.3 82 2.0 SSW 13 17 7 9 1008.0 1007.9 0.0
19/01:30am 20.4 21.0 17.6 84 1.7 SW 11 13 6 7 1008.2 1008.1 0.0
19/01:00am 20.2 21.5 17.6 85 1.6 SW 7 11 4 6 1008.5 1008.4 0.0
19/12:30am 20.2 21.0 17.4 84 1.7 SW 9 11 5 6 1008.9 1008.8 0.0
19/12:00am 20.6 21.2 16.8 79 2.3 SSW 9 11 5 6 1009.2 1009.1 0.0
 
Date/Time
EST
Temp
°C
App
Temp
°C
Dew
Point
°C
Rel
Hum
%
Delta-T
°C
Wind Press
QNH
hPa
Press
MSL
hPa
Rain since
9am
mm
Dir  Spd
km/h
Gust
km/h
Spd
kts
Gust
kts
18/11:30pm 22.3 23.4 17.0 72 3.2 S 7 9 4 5 1009.7 1009.6 0.0
18/11:00pm 23.6 24.5 17.6 69 3.7 SSE 9 15 5 8 1010.0 1009.9 0.0
18/10:30pm 23.9 24.7 17.4 67 4.0 SSE 9 17 5 9 1010.2 1010.1 0.0
18/10:00pm 24.3 24.8 17.5 66 4.2 SE 11 17 6 9 1010.5 1010.4 0.0
18/09:30pm 24.3 25.1 17.3 65 4.3 SSE 9 13 5 7 1010.4 1010.3 0.0
18/09:00pm 24.7 25.1 17.2 63 4.7 SSE 11 19 6 10 1010.3 1010.2 0.0
18/08:30pm 24.8 25.3 17.5 64 4.6 SSE 11 20 6 11 1010.1 1010.0 0.0
18/08:00pm 25.2 25.4 17.7 63 4.7 SE 13 20 7 11 1009.8 1009.7 0.0
18/07:30pm 25.2 25.5 17.9 64 4.6 SSE 13 24 7 13 1009.7 1009.6 0.0
18/07:00pm 25.5 25.4 17.9 63 4.8 SSE 15 28 8 15 1009.4 1009.3 0.0
18/06:30pm 25.9 24.8 17.3 59 5.4 SSE 19 28 10 15 1009.1 1009.0 0.0
18/06:00pm 26.7 25.8 16.9 55 6.1 SE 17 24 9 13 1008.8 1008.7 0.0
18/05:30pm 27.3 26.1 17.5 55 6.2 SE 20 33 11 18 1008.5 1008.4 0.0
18/05:00pm 27.9 25.2 16.5 50 7.1 SE 26 37 14 20 1008.2 1008.1 0.0
18/04:30pm 28.5 26.7 16.1 47 7.7 SE 20 37 11 20 1007.8 1007.7 0.0
18/04:00pm 29.2 26.6 16.0 44 8.2 SSE 24 37 13 20 1007.9 1007.8 0.0
18/03:30pm 29.3 26.1 15.4 42 8.5 SE 26 43 14 23 1007.9 1007.8 0.0
18/03:00pm 29.3 26.3 15.8 44 8.4 SE 26 44 14 24 1008.0 1007.9 0.0
18/02:30pm 30.0 27.5 16.1 43 8.6 SE 24 37 13 20 1008.1 1008.0 0.0
18/02:00pm 29.9 27.2 15.6 42 8.8 SSE 24 35 13 19 1008.6 1008.5 0.0
18/01:30pm 30.2 27.3 15.1 40 9.3 SE 24 43 13 23 1008.8 1008.7 0.0
18/01:00pm 30.3 28.0 15.6 41 9.1 SE 22 33 12 18 1009.3 1009.2 0.0
18/12:41pm 30.4 27.1 16.0 41 9.0 ESE 28 46 15 25 1009.4 1009.3 0.0
18/12:30pm 30.1 27.7 15.4 41 9.0 SE 22 35 12 19 1009.5 1009.4 0.0
18/12:00pm 30.1 28.9 17.5 46 8.0 SE 20 33 11 18 1009.9 1009.8 0.0
18/11:30am 29.9 27.9 17.4 47 7.9 SE 24 35 13 19 1010.1 1010.0 0.0
18/11:00am 29.9 28.0 16.7 45 8.3 SE 22 35 12 19 1010.4 1010.3 0.0
18/10:36am 28.9 27.3 16.5 47 7.7 SSE 20 39 11 21 1010.5 1010.4 0.0
18/10:30am 28.2 26.7 16.8 50 7.1 SSE 20 33 11 18 1010.6 1010.5 0.0
18/10:00am 29.2 26.9 15.7 44 8.3 SSE 22 35 12 19 1010.7 1010.6 0.0
18/09:30am 29.1 27.1 15.6 44 8.3 SE 20 32 11 17 1010.8 1010.7 0.0
18/09:00am 28.3 27.3 16.6 49 7.3 SSE 17 28 9 15 1011.0 1010.9 0.0
18/08:30am 27.4 26.9 17.0 53 6.5 S 15 24 8 13 1011.0 1010.9 0.0
18/08:00am 25.7 25.8 17.4 60 5.2 SW 13 17 7 9 1011.0 1010.9 0.0
18/07:30am 24.2 24.0 17.7 67 4.1 SSW 15 19 8 10 1010.8 1010.7 0.0
18/07:00am 22.6 22.8 17.7 74 3.0 SSW 13 19 7 10 1010.5 1010.4 0.0
18/06:30am 21.2 21.2 17.2 78 2.4 SW 13 20 7 11 1010.4 1010.3 0.0
18/06:00am 20.1 20.1 17.1 83 1.8 SSW 13 17 7 9 1010.2 1010.1 0.0
18/05:30am 20.0 20.3 17.0 83 1.8 SW 11 17 6 9 1010.1 1010.0 0.0
18/05:00am 19.9 20.2 17.1 84 1.7 SW 11 13 6 7 1010.0 1009.9 0.0
18/04:30am 19.7 20.0 17.1 85 1.6 SW 11 13 6 7 1009.8 1009.7 0.0
18/04:00am 19.7 20.0 17.1 85 1.6 SW 11 15 6 8 1009.6 1009.5 0.0
18/03:30am 19.8 20.2 17.2 85 1.6 SW 11 17 6 9 1009.6 1009.5 0.0
18/03:00am 20.1 20.5 17.3 84 1.7 SW 11 15 6 8 1009.6 1009.5 0.0
18/02:30am 20.5 21.5 17.7 84 1.7 SW 9 13 5 7 1009.6 1009.5 0.0
18/02:00am 20.9 21.5 17.7 82 2.0 SW 11 15 6 8 1009.9 1009.8 0.0
18/01:30am 21.4 22.5 18.0 81 2.1 SSW 9 11 5 6 1010.2 1010.1 0.0
18/01:00am 22.7 23.6 17.6 73 3.2 SSW 9 13 5 7 1010.6 1010.5 0.0
18/12:30am 24.1 24.9 18.1 69 3.8 SSE 11 17 6 9 1011.0 1010.9 0.0
18/12:00am 24.3 25.1 18.2 68 3.8 SSE 11 20 6 11 1011.2 1011.1 0.0
 
Date/Time
EST
Temp
°C
App
Temp
°C
Dew
Point
°C
Rel
Hum
%
Delta-T
°C
Wind Press
QNH
hPa
Press
MSL
hPa
Rain since
9am
mm
Dir  Spd
km/h
Gust
km/h
Spd
kts
Gust
kts
17/11:30pm 24.3 25.1 18.2 68 3.8 SSE 11 19 6 10 1011.5 1011.4 0.0
17/11:00pm 24.5 24.8 18.0 67 4.1 SSE 13 22 7 12 1011.8 1011.7 0.0
17/10:30pm 24.6 24.9 17.8 66 4.3 SSE 13 22 7 12 1012.0 1011.9 0.0
17/10:00pm 24.8 25.3 18.3 67 4.1 SSE 13 19 7 10 1012.1 1012.0 0.0
17/09:30pm 24.5 24.6 17.5 65 4.4 SE 13 22 7 12 1012.1 1012.0 0.0
17/09:00pm 24.8 25.1 18.0 66 4.3 SE 13 19 7 10 1011.9 1011.8 0.0
17/08:30pm 25.0 24.6 18.0 65 4.4 SE 17 26 9 14 1011.7 1011.6 0.0
17/08:00pm 25.2 24.4 17.9 64 4.6 SE 19 30 10 16 1011.3 1011.2 0.0
17/07:30pm 25.3 24.1 17.5 62 4.9 SE 20 37 11 20 1011.2 1011.1 0.0
17/07:00pm 25.4 24.2 17.6 62 4.9 SE 20 33 11 18 1010.8 1010.7 0.0
17/06:30pm 25.6 23.8 17.0 59 5.3 SE 22 37 12 20 1010.5 1010.4 0.0
17/06:00pm 26.1 24.4 17.2 58 5.6 SE 22 35 12 19 1010.1 1010.0 0.0
17/05:30pm 26.8 24.8 16.4 53 6.4 SE 22 39 12 21 1009.9 1009.8 0.0
17/05:00pm 27.4 25.4 17.3 54 6.3 SE 24 39 13 21 1009.9 1009.8 0.0
17/04:30pm 28.1 25.7 17.3 52 6.8 SE 26 41 14 22 1009.8 1009.7 0.0
17/04:00pm 28.7 26.5 17.9 52 6.9 SE 26 41 14 22 1009.7 1009.6 0.0
17/03:30pm 28.7 26.2 17.2 49 7.2 SE 26 43 14 23 1009.9 1009.8 0.0
17/03:00pm 29.0 26.3 17.5 49 7.3 SSE 28 43 15 23 1010.0 1009.9 0.0
17/02:30pm 29.3 26.8 17.2 48 7.6 SSE 26 43 14 23 1010.1 1010.0 0.0
17/02:00pm 29.1 25.7 17.6 50 7.3 ESE 32 43 17 23 1010.5 1010.4 0.0
17/01:30pm 28.6 26.4 17.8 52 6.9 SE 26 37 14 20 1010.6 1010.5 0.0
17/01:00pm 30.0 28.0 18.4 49 7.5 SE 26 46 14 25 1011.4 1011.3 0.0
17/12:30pm 28.8 26.1 16.7 48 7.6 ESE 26 39 14 21 1011.6 1011.5 0.0
17/12:00pm 29.3 27.6 17.2 48 7.6 SE 22 32 12 17 1012.0 1011.9 0.0
17/11:30am 27.0 26.0 17.5 56 6.0 SE 19 30 10 16 1012.7 1012.6 0.0
17/11:00am 29.6 27.7 16.8 46 8.0 SSE 22 37 12 20 1013.0 1012.9 0.0
17/10:30am 29.1 27.5 16.0 45 8.1 SE 19 30 10 16 1013.3 1013.2 0.0
17/10:00am 28.9 26.8 16.1 46 7.9 SE 22 37 12 20 1013.4 1013.3 0.0
17/09:30am 28.3 27.4 17.8 53 6.7 S 19 32 10 17 1013.4 1013.3 0.0

Other formats

Comma delimited format used in spreadsheet applications
http://www.bom.gov.au/fwo/IDQ60801/IDQ60801.95565.axf

JavaScript Object Notation format (JSON) in row-major order
http://www.bom.gov.au/fwo/IDQ60801/IDQ60801.95565.json

Data quality

Most of these data are generated automatically and are frequently updated. Quality checks on data are not normally performed. It is possible for incorrect values to appear. Refer to information at About Latest Weather Observations and please check the disclaimer before using these data.